createdAt,value
2018-05-16T00:02:15.261Z,17.60
2018-05-16T00:04:43.581Z,17.59
2018-05-16T00:07:11.933Z,17.51
2018-05-16T00:09:40.262Z,17.47
2018-05-16T00:12:08.608Z,17.43
2018-05-16T00:14:36.932Z,17.43
2018-05-16T00:17:05.264Z,17.24
2018-05-16T00:19:33.613Z,17.15
2018-05-16T00:22:01.941Z,17.14
2018-05-16T00:24:30.288Z,17.14
2018-05-16T00:26:58.620Z,17.16
2018-05-16T00:29:26.969Z,17.19
2018-05-16T00:31:55.302Z,17.16
2018-05-16T00:34:23.649Z,17.16
2018-05-16T00:36:51.977Z,17.12
2018-05-16T00:39:20.325Z,17.17
2018-05-16T00:41:48.649Z,17.19
2018-05-16T00:44:17.002Z,17.17
2018-05-16T00:46:45.328Z,17.15
2018-05-16T00:49:13.683Z,17.08
2018-05-16T00:51:42.009Z,17.09
2018-05-16T00:54:10.356Z,17.06
2018-05-16T00:56:38.687Z,16.96
2018-05-16T00:59:07.028Z,16.97
2018-05-16T01:01:35.353Z,16.93
2018-05-16T01:04:03.697Z,16.90
2018-05-16T01:06:32.016Z,16.91
2018-05-16T01:09:00.363Z,16.94
2018-05-16T01:11:28.688Z,16.97
2018-05-16T01:13:57.024Z,16.95
2018-05-16T01:16:25.372Z,16.83
2018-05-16T01:18:53.697Z,16.77
2018-05-16T01:21:22.048Z,16.66
2018-05-16T01:23:50.371Z,16.60
2018-05-16T01:26:18.717Z,16.55
2018-05-16T01:28:47.036Z,16.53
2018-05-16T01:31:15.382Z,16.62
2018-05-16T01:33:43.708Z,16.58
2018-05-16T01:36:12.053Z,16.50
2018-05-16T01:38:40.372Z,16.46
2018-05-16T01:41:08.710Z,16.40
2018-05-16T01:43:37.039Z,16.30
2018-05-16T01:46:05.380Z,16.35
2018-05-16T01:48:33.702Z,16.40
2018-05-16T01:51:02.049Z,16.37
2018-05-16T01:53:30.369Z,16.37
2018-05-16T01:55:58.720Z,16.41
2018-05-16T01:58:27.048Z,16.40
2018-05-16T02:00:55.398Z,16.39
2018-05-16T02:03:23.724Z,16.38
2018-05-16T02:05:52.072Z,16.25
2018-05-16T02:08:20.412Z,16.24
2018-05-16T02:10:48.757Z,16.20
2018-05-16T02:13:17.080Z,16.22
2018-05-16T02:15:45.408Z,16.24
2018-05-16T02:18:13.765Z,16.17
2018-05-16T02:20:42.097Z,16.02
2018-05-16T02:23:10.445Z,15.96
2018-05-16T02:25:38.764Z,15.90
2018-05-16T02:28:07.107Z,15.76
2018-05-16T02:30:35.434Z,15.74
2018-05-16T02:33:03.776Z,15.66
2018-05-16T02:35:32.100Z,15.62
2018-05-16T02:38:00.448Z,15.58
2018-05-16T02:40:28.766Z,15.59
2018-05-16T02:42:57.120Z,15.54
2018-05-16T02:45:25.444Z,15.49
2018-05-16T02:47:53.793Z,15.44
2018-05-16T02:50:22.114Z,15.33
2018-05-16T02:52:50.449Z,15.24
2018-05-16T02:55:18.772Z,15.21
2018-05-16T02:57:47.121Z,15.14
2018-05-16T03:00:15.446Z,15.10
2018-05-16T03:02:43.786Z,15.01
2018-05-16T03:05:12.121Z,15.06
2018-05-16T03:07:40.465Z,15.02
2018-05-16T03:10:08.785Z,15.01
2018-05-16T03:12:37.129Z,15.02
2018-05-16T03:15:05.473Z,15.05
2018-05-16T03:17:33.801Z,15.00
2018-05-16T03:20:02.125Z,14.99
2018-05-16T03:22:30.488Z,15.01
2018-05-16T03:24:58.799Z,14.97
2018-05-16T03:27:27.117Z,14.83
2018-05-16T03:29:55.465Z,14.67
2018-05-16T03:32:23.784Z,14.61
2018-05-16T03:34:52.133Z,14.68
2018-05-16T03:37:26.474Z,14.76
2018-05-16T03:39:54.816Z,14.83
2018-05-16T03:42:23.146Z,14.87
2018-05-16T03:44:51.484Z,14.85
2018-05-16T03:47:19.809Z,14.65
2018-05-16T03:49:48.156Z,14.70
2018-05-16T03:52:16.476Z,14.58
2018-05-16T03:54:44.820Z,14.50
2018-05-16T03:57:24.936Z,14.57
2018-05-16T04:00:05.305Z,14.44
2018-05-16T04:05:35.394Z,14.27
2018-05-16T04:08:03.709Z,14.37
2018-05-16T04:10:32.044Z,14.53
2018-05-16T04:13:00.372Z,14.75
2018-05-16T04:15:28.718Z,14.64
2018-05-16T04:17:57.045Z,14.55
2018-05-16T04:20:25.389Z,14.50
2018-05-16T04:22:53.708Z,14.54
2018-05-16T04:25:22.053Z,14.50
2018-05-16T04:27:50.378Z,14.50
2018-05-16T04:30:18.724Z,14.54
2018-05-16T04:32:47.110Z,14.56
2018-05-16T04:35:15.403Z,14.57
2018-05-16T04:37:43.850Z,14.53
2018-05-16T04:40:12.469Z,14.49
2018-05-16T04:42:40.845Z,14.51
2018-05-16T04:45:09.173Z,14.63
2018-05-16T04:47:38.358Z,14.61
2018-05-16T04:50:07.840Z,14.59
2018-05-16T04:52:36.185Z,14.61
2018-05-16T04:55:04.587Z,14.76
2018-05-16T04:57:32.934Z,14.85
2018-05-16T05:00:01.274Z,14.87
2018-05-16T05:02:29.660Z,14.90
2018-05-16T05:04:58.070Z,15.15
2018-05-16T05:07:26.856Z,15.39
2018-05-16T05:09:55.174Z,15.52
2018-05-16T05:12:23.573Z,15.57
2018-05-16T05:14:51.901Z,15.72
2018-05-16T05:17:20.247Z,15.94
2018-05-16T05:19:48.570Z,16.02
2018-05-16T05:22:16.916Z,16.04
2018-05-16T05:24:45.250Z,16.02
2018-05-16T05:27:13.605Z,16.05
2018-05-16T05:29:41.944Z,16.11
2018-05-16T05:32:11.222Z,16.04
2018-05-16T05:34:39.545Z,15.86
2018-05-16T05:37:07.908Z,15.81
2018-05-16T05:39:36.240Z,15.77
2018-05-16T05:42:04.568Z,15.79
2018-05-16T05:44:32.917Z,15.99
2018-05-16T05:47:01.245Z,16.07
2018-05-16T05:49:29.597Z,15.97
2018-05-16T05:51:57.929Z,16.01
2018-05-16T05:54:26.285Z,15.92
2018-05-16T05:56:54.612Z,15.99
2018-05-16T05:59:22.968Z,16.14
2018-05-16T06:01:51.309Z,16.28
2018-05-16T06:04:19.658Z,16.35
2018-05-16T06:06:47.992Z,16.44
2018-05-16T06:09:16.344Z,16.57
2018-05-16T06:11:44.686Z,16.66
2018-05-16T06:14:13.040Z,16.68
2018-05-16T06:16:41.373Z,16.67
2018-05-16T06:19:09.724Z,16.69
2018-05-16T06:21:38.060Z,16.67
2018-05-16T06:24:06.409Z,16.64
2018-05-16T06:26:34.745Z,16.68
2018-05-16T06:29:03.100Z,16.74
2018-05-16T06:31:31.432Z,16.70
2018-05-16T06:33:59.793Z,16.68
2018-05-16T06:36:28.129Z,16.68
2018-05-16T06:38:56.485Z,16.81
2018-05-16T06:41:24.812Z,16.80
2018-05-16T06:43:53.179Z,16.80
2018-05-16T06:46:21.509Z,16.75
2018-05-16T06:48:49.840Z,16.85
2018-05-16T06:51:18.192Z,16.89
2018-05-16T06:53:46.529Z,16.84
2018-05-16T06:56:14.880Z,16.84
2018-05-16T06:58:43.217Z,16.96
2018-05-16T07:01:11.573Z,17.04
2018-05-16T07:03:39.904Z,17.14
2018-05-16T07:06:08.257Z,17.31
2018-05-16T07:08:36.588Z,17.26
2018-05-16T07:11:04.949Z,17.25
2018-05-16T07:13:33.320Z,17.37
2018-05-16T07:16:01.677Z,17.62
2018-05-16T07:18:30.008Z,17.63
2018-05-16T07:20:58.357Z,17.74
2018-05-16T07:23:26.693Z,17.75
2018-05-16T07:25:55.045Z,17.47
2018-05-16T07:28:23.378Z,17.19
2018-05-16T07:30:51.734Z,17.26
2018-05-16T07:33:20.064Z,17.32
2018-05-16T07:35:48.416Z,17.40
2018-05-16T07:38:16.749Z,17.48
2018-05-16T07:40:45.104Z,17.47
2018-05-16T07:43:13.441Z,17.45
2018-05-16T07:45:41.773Z,17.56
2018-05-16T07:48:10.125Z,17.61
2018-05-16T07:50:38.460Z,17.68
2018-05-16T07:53:06.808Z,17.83
2018-05-16T07:55:35.141Z,17.87
2018-05-16T07:58:03.493Z,18.01
2018-05-16T08:00:31.828Z,18.15
2018-05-16T08:03:00.179Z,18.25
2018-05-16T08:05:28.525Z,18.31
2018-05-16T08:07:56.878Z,18.49
2018-05-16T08:10:25.213Z,18.66
2018-05-16T08:12:53.568Z,18.72
2018-05-16T08:15:21.896Z,18.76
2018-05-16T08:17:50.253Z,18.74
2018-05-16T08:20:18.593Z,18.46
2018-05-16T08:22:46.999Z,18.38
2018-05-16T08:25:15.281Z,18.41
2018-05-16T08:27:43.633Z,18.45
2018-05-16T08:30:11.969Z,18.46
2018-05-16T08:32:40.333Z,18.46
2018-05-16T08:35:08.660Z,18.47
2018-05-16T08:37:37.021Z,18.34
2018-05-16T08:40:05.359Z,18.20
2018-05-16T08:42:33.708Z,18.30
2018-05-16T08:45:02.044Z,18.27
2018-05-16T08:47:30.372Z,18.35
2018-05-16T08:49:58.736Z,18.64
2018-05-16T08:52:27.061Z,18.73
2018-05-16T08:54:55.417Z,18.86
2018-05-16T08:57:23.748Z,18.95
2018-05-16T08:59:52.110Z,19.11
2018-05-16T09:02:20.449Z,19.35
2018-05-16T09:04:48.813Z,19.65
2018-05-16T09:07:17.141Z,19.77
2018-05-16T09:09:45.502Z,19.79
2018-05-16T09:12:13.845Z,19.87
2018-05-16T09:14:42.192Z,19.78
2018-05-16T09:17:10.580Z,19.62
2018-05-16T09:19:38.880Z,19.60
2018-05-16T09:22:07.212Z,19.55
2018-05-16T09:24:35.568Z,19.51
2018-05-16T09:27:03.913Z,19.33
2018-05-16T09:29:32.273Z,19.20
2018-05-16T09:32:00.596Z,19.15
2018-05-16T09:34:28.959Z,19.25
2018-05-16T09:36:57.294Z,19.37
2018-05-16T09:39:25.652Z,19.33
2018-05-16T09:41:53.989Z,19.14
2018-05-16T09:44:22.349Z,19.23
2018-05-16T09:46:50.676Z,19.32
2018-05-16T09:49:19.032Z,19.37
2018-05-16T09:51:47.377Z,19.32
2018-05-16T09:54:15.710Z,19.24
2018-05-16T09:56:44.065Z,19.20
2018-05-16T09:59:12.404Z,19.12
2018-05-16T10:01:40.757Z,19.10
2018-05-16T10:04:09.097Z,19.09
2018-05-16T10:06:37.448Z,19.10
2018-05-16T10:09:05.871Z,19.17
2018-05-16T10:11:34.144Z,19.26
2018-05-16T10:14:02.472Z,19.35
2018-05-16T10:16:30.837Z,19.36
2018-05-16T10:18:59.169Z,19.33
2018-05-16T10:21:27.516Z,19.35
2018-05-16T10:23:55.851Z,19.28
2018-05-16T10:26:24.205Z,19.35
2018-05-16T10:28:52.545Z,19.40
2018-05-16T10:31:20.904Z,19.47
2018-05-16T10:33:49.232Z,19.55
2018-05-16T10:36:17.589Z,19.55
2018-05-16T10:38:45.927Z,19.59
2018-05-16T10:41:14.347Z,19.68
2018-05-16T10:43:42.613Z,19.66
2018-05-16T10:46:10.971Z,19.68
2018-05-16T10:48:39.304Z,19.64
2018-05-16T10:51:07.673Z,19.73
2018-05-16T10:53:36.013Z,19.82
2018-05-16T10:56:04.345Z,19.84
2018-05-16T10:58:32.702Z,19.77
2018-05-16T11:01:01.033Z,19.78
2018-05-16T11:03:29.385Z,19.79
2018-05-16T11:05:57.715Z,19.87
2018-05-16T11:08:26.077Z,19.90
2018-05-16T11:10:54.404Z,19.96
2018-05-16T11:13:22.760Z,20.14
2018-05-16T11:15:51.120Z,20.30
2018-05-16T11:18:19.477Z,20.38
2018-05-16T11:20:47.810Z,20.32
2018-05-16T11:23:16.176Z,20.22
2018-05-16T11:25:44.510Z,20.32
2018-05-16T11:28:12.872Z,20.36
2018-05-16T11:30:41.196Z,20.39
2018-05-16T11:33:09.553Z,20.46
2018-05-16T11:35:37.881Z,20.60
2018-05-16T11:38:06.243Z,20.69
2018-05-16T11:40:34.564Z,20.71
2018-05-16T11:43:02.917Z,20.72
2018-05-16T11:45:31.249Z,20.70
2018-05-16T11:47:59.613Z,20.66
2018-05-16T11:50:27.945Z,20.57
2018-05-16T11:52:56.317Z,20.57
2018-05-16T11:55:27.025Z,20.69
2018-05-16T11:57:55.380Z,20.71
2018-05-16T12:00:23.732Z,20.92
2018-05-16T12:02:52.091Z,21.13
2018-05-16T12:05:20.425Z,21.20
2018-05-16T12:07:48.760Z,21.13
2018-05-16T12:10:17.118Z,21.24
2018-05-16T12:12:45.453Z,21.33
2018-05-16T12:15:13.800Z,21.43
2018-05-16T12:17:42.138Z,21.47
2018-05-16T12:20:10.494Z,21.58
2018-05-16T12:22:38.828Z,21.53
2018-05-16T12:25:07.197Z,21.50
2018-05-16T12:27:35.530Z,21.53
2018-05-16T12:30:03.880Z,21.66
2018-05-16T12:32:32.212Z,21.75
2018-05-16T12:35:00.568Z,21.89
2018-05-16T12:37:28.905Z,22.01
2018-05-16T12:39:57.261Z,22.16
2018-05-16T12:42:25.594Z,22.25
2018-05-16T12:44:53.940Z,22.35
2018-05-16T12:47:22.271Z,22.46
2018-05-16T12:49:50.630Z,22.45
2018-05-16T12:52:18.965Z,22.40
2018-05-16T12:54:47.308Z,22.49
2018-05-16T12:57:15.646Z,22.65
2018-05-16T12:59:44.024Z,22.87
2018-05-16T13:02:12.340Z,22.93
2018-05-16T13:04:40.681Z,22.87
2018-05-16T13:07:09.057Z,22.91
2018-05-16T13:09:37.367Z,22.85
2018-05-16T13:12:05.716Z,22.84
2018-05-16T13:14:34.061Z,22.84
2018-05-16T13:17:02.416Z,22.91
2018-05-16T13:19:30.749Z,23.14
2018-05-16T13:21:59.167Z,23.41
2018-05-16T13:24:27.505Z,23.38
2018-05-16T13:26:55.940Z,23.32
2018-05-16T13:29:24.247Z,23.40
2018-05-16T13:31:52.596Z,23.44
2018-05-16T13:34:20.941Z,23.42
2018-05-16T13:36:49.309Z,23.40
2018-05-16T13:39:17.636Z,23.33
2018-05-16T13:41:46.004Z,23.29
2018-05-16T13:44:14.349Z,23.15
2018-05-16T13:46:42.710Z,22.90
2018-05-16T13:49:11.053Z,22.89
2018-05-16T13:51:39.408Z,22.95
2018-05-16T13:54:07.789Z,22.82
2018-05-16T13:56:36.152Z,22.79
2018-05-16T13:59:04.497Z,22.87
2018-05-16T14:01:32.828Z,22.99
2018-05-16T14:04:01.197Z,23.13
2018-05-16T14:06:29.597Z,23.33
2018-05-16T14:11:25.276Z,23.31
2018-05-16T14:13:53.628Z,23.37
2018-05-16T14:16:21.968Z,23.46
2018-05-16T14:18:50.328Z,23.41
2018-05-16T14:21:18.672Z,23.38
2018-05-16T14:23:47.821Z,23.44
2018-05-16T14:26:16.477Z,23.45
2018-05-16T14:28:45.245Z,23.41
2018-05-16T14:31:13.693Z,23.30
2018-05-16T14:33:42.220Z,23.16
2018-05-16T14:36:10.716Z,22.95
2018-05-16T14:38:39.869Z,22.91
2018-05-16T14:41:08.253Z,22.81
2018-05-16T14:43:36.650Z,22.72
2018-05-16T14:46:05.049Z,22.72
2018-05-16T14:48:33.522Z,22.60
2018-05-16T14:51:01.890Z,22.64
2018-05-16T14:53:30.277Z,22.58
2018-05-16T14:55:58.775Z,22.51
2018-05-16T14:58:27.301Z,22.33
2018-05-16T15:00:55.704Z,22.15
2018-05-16T15:03:24.148Z,22.01
2018-05-16T15:05:52.591Z,21.96
2018-05-16T15:08:21.055Z,21.84
2018-05-16T15:10:49.388Z,21.97
2018-05-16T15:13:17.724Z,21.97
2018-05-16T15:15:46.085Z,21.84
2018-05-16T15:18:14.429Z,22.00
2018-05-16T15:20:42.824Z,21.93
2018-05-16T15:23:11.165Z,21.87
2018-05-16T15:25:39.524Z,21.91
2018-05-16T15:28:07.869Z,21.83
2018-05-16T15:30:36.240Z,21.78
2018-05-16T15:33:04.588Z,21.84
2018-05-16T15:35:33.029Z,21.87
2018-05-16T15:38:01.345Z,21.89
2018-05-16T15:40:29.719Z,21.69
2018-05-16T15:42:58.065Z,21.53
2018-05-16T15:45:26.421Z,21.49
2018-05-16T15:47:54.765Z,21.54
2018-05-16T15:50:23.130Z,21.62
2018-05-16T15:52:51.484Z,21.51
2018-05-16T15:55:19.834Z,21.45
2018-05-16T15:57:48.171Z,21.18
2018-05-16T16:00:16.533Z,20.83
2018-05-16T16:02:44.869Z,20.94
2018-05-16T16:05:13.228Z,20.92
2018-05-16T16:07:41.573Z,20.92
2018-05-16T16:10:09.961Z,20.93
2018-05-16T16:12:38.296Z,21.10
2018-05-16T16:15:06.628Z,20.99
2018-05-16T16:17:34.992Z,21.01
2018-05-16T16:20:03.328Z,20.98
2018-05-16T16:22:31.684Z,20.75
2018-05-16T16:25:00.025Z,20.65
2018-05-16T16:27:28.388Z,20.53
2018-05-16T16:29:56.729Z,20.32
2018-05-16T16:32:25.093Z,20.16
2018-05-16T16:34:53.432Z,20.13
2018-05-16T16:37:21.792Z,20.13
2018-05-16T16:39:50.128Z,20.19
2018-05-16T16:42:18.485Z,20.19
2018-05-16T16:44:46.974Z,20.26
2018-05-16T16:47:15.182Z,20.33
2018-05-16T16:49:43.513Z,20.41
2018-05-16T16:52:11.869Z,20.49
2018-05-16T16:54:40.200Z,20.53
2018-05-16T16:57:08.564Z,20.49
2018-05-16T16:59:36.895Z,20.34
2018-05-16T17:02:05.249Z,20.16
2018-05-16T17:04:33.673Z,20.13
2018-05-16T17:07:01.947Z,20.08
2018-05-16T17:09:30.339Z,20.08
2018-05-16T17:11:58.612Z,20.04
2018-05-16T17:14:27.871Z,20.06
2018-05-16T17:16:56.209Z,20.04
2018-05-16T17:19:24.564Z,20.04
2018-05-16T17:21:52.901Z,20.04
2018-05-16T17:24:21.252Z,20.09
2018-05-16T17:26:49.641Z,19.97
2018-05-16T17:29:17.929Z,19.93
2018-05-16T17:31:46.265Z,19.82
2018-05-16T17:34:14.621Z,19.78
2018-05-16T17:36:42.948Z,19.72
2018-05-16T17:39:11.304Z,19.70
2018-05-16T17:41:39.640Z,19.61
2018-05-16T17:44:07.993Z,19.56
2018-05-16T17:46:36.318Z,19.51
2018-05-16T17:49:04.673Z,19.43
2018-05-16T17:51:33.009Z,19.36
2018-05-16T17:54:01.368Z,19.27
2018-05-16T17:56:29.723Z,19.21
2018-05-16T17:58:58.741Z,19.28
2018-05-16T18:01:27.081Z,19.21
2018-05-16T18:03:55.440Z,19.05
2018-05-16T18:06:23.782Z,18.78
2018-05-16T18:08:52.140Z,18.69
2018-05-16T18:11:20.480Z,18.43
2018-05-16T18:14:01.325Z,18.36
2018-05-16T18:16:41.451Z,18.29
2018-05-16T18:19:09.801Z,18.26
2018-05-16T18:21:38.184Z,18.26
2018-05-16T18:24:06.515Z,18.30
2018-05-16T18:26:34.861Z,18.24
2018-05-16T18:29:03.232Z,18.26
2018-05-16T18:31:31.632Z,18.25
2018-05-16T18:34:00.798Z,18.20
2018-05-16T18:36:29.226Z,18.10
2018-05-16T18:38:57.665Z,18.14
2018-05-16T18:41:26.030Z,18.06
2018-05-16T18:43:54.422Z,18.00
2018-05-16T18:46:22.848Z,17.96
2018-05-16T18:48:51.264Z,17.87
2018-05-16T18:51:19.709Z,17.90
2018-05-16T18:53:48.265Z,17.81
2018-05-16T18:56:17.623Z,17.81
2018-05-16T18:58:46.029Z,17.82
2018-05-16T19:01:16.049Z,17.79
2018-05-16T19:03:44.416Z,17.73
2018-05-16T19:06:12.786Z,17.60
2018-05-16T19:08:41.203Z,17.47
2018-05-16T19:11:09.480Z,17.44
2018-05-16T19:13:37.879Z,17.42
2018-05-16T19:16:06.285Z,17.42
2018-05-16T19:18:34.653Z,17.43
2018-05-16T19:21:03.065Z,17.45
2018-05-16T19:23:31.564Z,17.42
2018-05-16T19:25:59.963Z,17.40
2018-05-16T19:28:28.372Z,17.30
2018-05-16T19:30:56.789Z,17.27
2018-05-16T19:33:25.130Z,17.31
2018-05-16T19:35:53.466Z,17.39
2018-05-16T19:38:22.155Z,17.30
2018-05-16T19:40:50.660Z,17.29
2018-05-16T19:43:19.029Z,17.22
2018-05-16T19:45:47.361Z,17.22
2018-05-16T19:48:15.809Z,17.17
2018-05-16T19:50:44.200Z,17.23
2018-05-16T19:53:12.832Z,17.19
2018-05-16T19:55:41.260Z,17.06
2018-05-16T19:58:09.691Z,17.04
2018-05-16T20:00:38.094Z,17.03
2018-05-16T20:03:06.453Z,17.04
2018-05-16T20:05:34.807Z,16.92
2018-05-16T20:08:03.157Z,17.03
2018-05-16T20:10:31.487Z,16.98
2018-05-16T20:12:59.856Z,16.95
2018-05-16T20:15:28.197Z,16.90
2018-05-16T20:17:56.552Z,16.71
2018-05-16T20:20:24.913Z,16.68
2018-05-16T20:22:53.293Z,16.68
2018-05-16T20:25:21.625Z,16.58
2018-05-16T20:27:50.091Z,16.54
2018-05-16T20:30:18.426Z,16.58
2018-05-16T20:32:46.783Z,16.57
2018-05-16T20:35:15.359Z,16.61
2018-05-16T20:37:43.788Z,16.49
2018-05-16T20:40:12.135Z,16.53
2018-05-16T20:42:40.480Z,16.52
2018-05-16T20:45:08.813Z,16.51
2018-05-16T20:47:37.169Z,16.45
2018-05-16T20:50:05.493Z,16.40
2018-05-16T20:52:33.865Z,16.32
2018-05-16T20:55:02.197Z,16.34
2018-05-16T20:57:30.550Z,16.31
2018-05-16T20:59:58.893Z,16.37
2018-05-16T21:02:27.255Z,16.32
2018-05-16T21:04:55.590Z,16.29
2018-05-16T21:07:23.948Z,16.33
2018-05-16T21:09:52.388Z,16.20
2018-05-16T21:12:20.925Z,16.20
2018-05-16T21:14:49.320Z,16.17
2018-05-16T21:17:17.666Z,16.04
2018-05-16T21:19:45.993Z,16.01
2018-05-16T21:22:14.345Z,16.05
2018-05-16T21:24:42.673Z,16.14
2018-05-16T21:27:11.001Z,16.11
2018-05-16T21:29:39.349Z,16.10
2018-05-16T21:32:07.669Z,16.05
2018-05-16T21:34:36.021Z,15.93
2018-05-16T21:37:04.358Z,15.99
2018-05-16T21:39:32.696Z,15.99
2018-05-16T21:42:01.022Z,16.02
2018-05-16T21:44:29.372Z,16.05
2018-05-16T21:46:57.705Z,16.09
2018-05-16T21:49:26.053Z,16.10
2018-05-16T21:51:54.377Z,16.09
2018-05-16T21:54:22.729Z,16.05
2018-05-16T21:56:51.068Z,15.92
2018-05-16T21:59:19.417Z,15.82
2018-05-16T22:01:47.742Z,15.78
2018-05-16T22:04:16.091Z,15.83
2018-05-16T22:06:44.412Z,15.73
2018-05-16T22:09:12.764Z,15.66
2018-05-16T22:11:41.096Z,15.62
2018-05-16T22:14:09.449Z,15.50
2018-05-16T22:16:37.777Z,15.60
2018-05-16T22:19:06.136Z,15.59
2018-05-16T22:21:34.456Z,15.47
2018-05-16T22:24:02.800Z,15.49
2018-05-16T22:26:31.124Z,15.46
2018-05-16T22:28:59.479Z,15.56
2018-05-16T22:31:33.316Z,15.36
2018-05-16T22:34:07.388Z,15.20
2018-05-16T22:36:41.432Z,15.07
2018-05-16T22:39:15.440Z,15.09
2018-05-16T22:41:49.441Z,15.10
2018-05-16T22:47:20.719Z,14.96
2018-05-16T22:49:49.065Z,14.88
2018-05-16T22:52:17.388Z,14.84
2018-05-16T22:54:45.734Z,14.65
2018-05-16T22:57:14.061Z,14.69
2018-05-16T22:59:42.410Z,14.78
2018-05-16T23:02:10.732Z,14.73
2018-05-16T23:04:39.076Z,14.74
2018-05-16T23:07:07.405Z,14.63
2018-05-16T23:09:35.756Z,14.60
2018-05-16T23:12:04.084Z,14.65
2018-05-16T23:14:32.437Z,14.56
2018-05-16T23:17:00.771Z,14.64
2018-05-16T23:19:29.121Z,14.51
2018-05-16T23:21:57.449Z,14.39
2018-05-16T23:24:25.796Z,14.38
2018-05-16T23:26:54.125Z,14.32
2018-05-16T23:29:22.476Z,14.34
2018-05-16T23:31:50.804Z,14.34
2018-05-16T23:34:19.153Z,14.34
2018-05-16T23:36:47.486Z,14.38
2018-05-16T23:39:15.831Z,14.37
2018-05-16T23:41:44.156Z,14.25
2018-05-16T23:44:12.512Z,14.16
2018-05-16T23:46:40.848Z,14.04
2018-05-16T23:49:09.198Z,14.02
2018-05-16T23:51:37.532Z,14.09
2018-05-16T23:54:05.889Z,14.04
2018-05-16T23:56:34.219Z,14.06
2018-05-16T23:59:02.567Z,14.00
